Time;durP1;ratioP1;P1;durP2;ratioP2;P2;SDS_P1;SDS_P2;PMS_P1;PMS_P2;Temp;Humidity;BMP_temperature;BMP_pressure;BME280_temperature;BME280_humidity;BME280_pressure;Samples;Min_cycle;Max_cycle;Signal;HPM_P1;HPM_P2
2023/03/21 00:00:59;;;;;;;6.70;3.38;;;;;;;17.96;41.32;100203.47;5074780;28;20064;-65
2023/03/21 00:03:27;;;;;;;6.57;3.35;;;;;;;17.95;41.38;100203.56;5074664;28;20533;-65
2023/03/21 00:05:56;;;;;;;6.78;3.17;;;;;;;17.89;41.41;100193.38;5074550;28;20041;-66
2023/03/21 00:08:25;;;;;;;8.13;3.88;;;;;;;17.94;41.38;100204.56;5074618;28;20044;-66
2023/03/21 00:10:58;;;;;;;5.70;3.50;;;;;;;17.93;41.57;100200.19;5074499;28;20048;-64
2023/03/21 00:13:31;;;;;;;6.60;3.35;;;;;;;17.91;41.41;100194.06;5074641;28;20044;-66
2023/03/21 00:16:05;;;;;;;5.78;3.28;;;;;;;17.91;41.34;100197.63;5074434;28;20051;-65
2023/03/21 00:18:51;;;;;;;6.18;3.25;;;;;;;17.87;41.37;100184.56;5074331;28;20040;-65
2023/03/21 00:21:27;;;;;;;5.97;3.28;;;;;;;17.88;41.63;100186.28;5074354;28;20055;-64
2023/03/21 00:24:15;;;;;;;5.82;3.38;;;;;;;17.89;41.58;100193.38;5074221;28;20048;-66
2023/03/21 00:26:43;;;;;;;4.80;2.85;;;;;;;17.85;41.68;100181.97;5074281;28;20451;-65
2023/03/21 00:29:11;;;;;;;6.05;3.40;;;;;;;17.87;41.60;100179.16;5074115;28;20513;-65
2023/03/21 00:31:41;;;;;;;5.70;3.00;;;;;;;17.85;41.69;100171.19;5074122;28;20076;-64
2023/03/21 00:34:09;;;;;;;5.38;3.00;;;;;;;17.84;41.59;100169.50;5073987;28;20045;-64
2023/03/21 00:36:42;;;;;;;5.55;3.40;;;;;;;17.82;41.47;100168.78;5074174;28;20123;-65
2023/03/21 00:39:10;;;;;;;6.60;3.22;;;;;;;17.82;41.42;100160.69;5073811;28;20052;-64
2023/03/21 00:41:39;;;;;;;5.88;2.97;;;;;;;17.80;41.54;100159.13;5073959;28;20072;-65
2023/03/21 00:44:12;;;;;;;7.03;3.38;;;;;;;17.81;41.63;100158.13;5073884;28;20076;-65
2023/03/21 00:46:42;;;;;;;5.82;3.10;;;;;;;17.80;41.48;100161.81;5073828;28;20478;-65
2023/03/21 00:49:32;;;;;;;6.40;3.20;;;;;;;17.78;41.52;100153.88;5073032;28;20048;-65
2023/03/21 00:52:01;;;;;;;5.82;3.20;;;;;;;17.77;41.51;100154.88;5073926;28;20050;-64
2023/03/21 00:54:45;;;;;;;5.57;3.25;;;;;;;17.78;41.44;100155.72;5073781;28;20044;-65
2023/03/21 00:57:13;;;;;;;4.63;2.83;;;;;;;17.72;41.64;100154.44;5073811;28;20044;-65
2023/03/21 00:59:41;;;;;;;5.78;2.90;;;;;;;17.72;41.49;100146.34;5073697;28;20531;-64
2023/03/21 01:02:21;;;;;;;5.72;3.10;;;;;;;17.73;41.56;100154.28;5073733;28;20056;-66
2023/03/21 01:04:49;;;;;;;5.50;2.85;;;;;;;17.73;41.45;100159.69;5073514;28;20124;-65
2023/03/21 01:07:18;;;;;;;4.95;2.90;;;;;;;17.71;41.54;100158.97;5073363;28;20048;-68
2023/03/21 01:09:46;;;;;;;5.93;3.00;;;;;;;17.70;41.52;100151.88;5073340;28;20044;-66
2023/03/21 01:12:14;;;;;;;6.20;3.15;;;;;;;17.70;41.69;100151.88;5073522;28;20055;-65
2023/03/21 01:14:42;;;;;;;4.28;2.90;;;;;;;17.69;41.78;100150.19;5073300;28;20056;-66
2023/03/21 01:17:12;;;;;;;4.60;2.90;;;;;;;17.69;41.51;100154.69;5073280;28;20044;-66
2023/03/21 01:19:40;;;;;;;5.50;2.90;;;;;;;17.65;41.83;100140.63;5073149;28;20056;-66
2023/03/21 01:22:19;;;;;;;4.63;2.80;;;;;;;17.67;41.72;100146.75;5073284;28;20048;-65
2023/03/21 01:24:47;;;;;;;5.95;3.03;;;;;;;17.63;41.75;100139.91;5073158;28;20075;-66
2023/03/21 01:27:35;;;;;;;4.90;3.03;;;;;;;17.65;41.60;100143.31;5073174;28;20053;-64
2023/03/21 01:30:04;;;;;;;5.55;3.10;;;;;;;17.64;41.82;100146.16;5073460;28;20109;-65
2023/03/21 01:32:45;;;;;;;5.13;2.75;;;;;;;17.61;41.69;100147.28;5072039;28;20045;-64
2023/03/21 01:35:13;;;;;;;5.10;2.80;;;;;;;17.62;41.70;100142.75;5073180;28;20044;-65
2023/03/21 01:37:42;;;;;;;4.75;3.20;;;;;;;17.61;41.74;100147.28;5072797;28;20394;-64
2023/03/21 01:40:16;;;;;;;4.28;2.83;;;;;;;17.61;41.78;100154.53;5072745;28;20455;-64
2023/03/21 01:42:44;;;;;;;5.55;2.92;;;;;;;17.58;41.73;100152.13;5072872;28;20055;-65
2023/03/21 01:45:46;;;;;;;3.92;2.45;;;;;;;17.56;41.69;100149.53;5072660;28;20048;-65
2023/03/21 01:48:16;;;;;;;5.40;2.90;;;;;;;17.57;41.73;100153.97;5072500;28;20056;-66
2023/03/21 01:50:46;;;;;;;5.18;3.00;;;;;;;17.57;41.84;100162.06;5072547;28;20120;-65
2023/03/21 01:53:15;;;;;;;4.22;2.70;;;;;;;17.55;41.75;100153.22;5072379;28;20041;-64
2023/03/21 01:55:43;;;;;;;4.32;2.55;;;;;;;17.54;41.85;100150.69;5072478;28;20072;-64
2023/03/21 01:58:13;;;;;;;4.88;2.80;;;;;;;17.53;41.83;100147.13;5072430;28;20521;-65
2023/03/21 02:00:42;;;;;;;4.40;2.80;;;;;;;17.51;41.75;100151.81;5072336;28;20045;-66
2023/03/21 02:03:15;;;;;;;4.28;2.85;;;;;;;17.51;41.82;100150.97;5072420;28;20036;-65
2023/03/21 02:06:01;;;;;;;3.88;2.65;;;;;;;17.50;41.72;100151.97;5072473;28;20056;-65
2023/03/21 02:08:30;;;;;;;;;;;;;;;17.50;41.89;100154.66;5072646;28;20047;-65
2023/03/21 02:11:08;;;;;;;3.83;2.40;;;;;;;17.49;41.99;100153.81;5072341;28;19959;-65
2023/03/21 02:13:37;;;;;;;4.32;2.88;;;;;;;17.48;41.96;100149.41;5072189;28;20037;-65
2023/03/21 02:16:12;;;;;;;4.82;2.40;;;;;;;17.48;41.90;100145.88;5072002;28;20123;-63
2023/03/21 02:18:50;;;;;;;4.70;2.58;;;;;;;17.46;42.12;100148.66;5071969;28;20041;-63
2023/03/21 02:21:52;;;;;;;4.15;2.70;;;;;;;17.44;41.93;100150.66;5072057;28;20048;-65
2023/03/21 02:25:08;;;;;;;4.45;2.53;;;;;;;17.43;41.77;100143.56;5072056;28;20045;-65
2023/03/21 02:27:54;;;;;;;3.72;2.30;;;;;;;17.43;41.94;100148.97;5072088;28;20053;-65
2023/03/21 02:31:02;;;;;;;4.80;2.63;;;;;;;17.43;41.86;100143.56;5072282;28;20051;-65
2023/03/21 02:33:53;;;;;;;4.53;2.67;;;;;;;17.42;41.94;100144.56;5072106;28;20048;-66
2023/03/21 02:36:34;;;;;;;4.03;2.55;;;;;;;17.41;42.07;100145.56;5071940;28;20504;-64
2023/03/21 02:39:11;;;;;;;4.00;2.47;;;;;;;17.39;41.91;100144.84;5071691;28;20048;-65
2023/03/21 02:41:48;;;;;;;5.72;2.60;;;;;;;17.39;42.14;100152.94;5071846;28;20044;-64
2023/03/21 02:44:23;;;;;;;4.20;2.65;;;;;;;17.37;42.11;100152.19;5072290;28;20056;-64
2023/03/21 02:46:58;;;;;;;4.47;2.50;;;;;;;17.37;42.07;100154.88;5071726;28;20075;-65
2023/03/21 02:49:41;;;;;;;4.85;2.72;;;;;;;17.38;42.03;100153.94;5071766;28;20090;-65
2023/03/21 02:52:14;;;;;;;3.78;2.50;;;;;;;17.34;42.19;100156.03;5071681;28;20052;-66
2023/03/21 02:55:03;;;;;;;3.50;2.47;;;;;;;17.36;41.97;100158.59;5071730;28;20098;-66
2023/03/21 02:57:33;;;;;;;4.20;2.30;;;;;;;17.35;42.12;100165.81;5071636;28;20651;-66
2023/03/21 03:00:16;;;;;;;4.53;2.78;;;;;;;17.34;42.06;100156.03;5071537;28;20045;-65
2023/03/21 03:02:45;;;;;;;4.75;2.60;;;;;;;17.34;41.92;100160.56;5071577;28;20047;-64
2023/03/21 03:05:20;;;;;;;3.25;2.25;;;;;;;17.31;42.06;100144.69;5071598;28;20055;-64
2023/03/21 03:08:17;;;;;;;3.80;2.40;;;;;;;17.31;42.13;100155.47;5071652;28;20409;-64
2023/03/21 03:11:00;;;;;;;4.82;2.50;;;;;;;17.30;42.05;100159.16;5049403;28;20056;-65
2023/03/21 03:13:41;;;;;;;3.97;2.30;;;;;;;17.30;42.02;100161.84;5074904;28;20430;-65
2023/03/21 03:16:19;;;;;;;4.10;2.25;;;;;;;17.29;42.16;100168.22;5075653;28;20524;-65
2023/03/21 03:18:52;;;;;;;4.50;2.58;;;;;;;17.25;42.20;100156.00;5075593;28;20048;-66
2023/03/21 03:21:25;;;;;;;3.70;2.33;;;;;;;17.26;42.13;100163.94;5075536;28;20048;-64
2023/03/21 03:23:57;;;;;;;3.92;2.47;;;;;;;17.27;42.13;100160.25;5075358;28;20056;-65
2023/03/21 03:26:31;;;;;;;4.30;2.50;;;;;;;17.27;42.12;100151.31;5075526;28;20044;-64
2023/03/21 03:29:03;;;;;;;4.10;2.53;;;;;;;17.24;42.20;100140.81;5067174;28;20095;-65
2023/03/21 03:31:36;;;;;;;4.55;2.17;;;;;;;17.25;42.25;100156.00;5055470;28;20123;-65
2023/03/21 03:34:07;;;;;;;;;;;;;;;17.25;42.29;100156.00;5055941;28;20052;-65
2023/03/21 03:36:39;;;;;;;4.65;2.45;;;;;;;17.22;42.21;100161.69;5055263;28;19924;-65
2023/03/21 03:39:11;;;;;;;4.03;2.22;;;;;;;17.22;42.16;100167.06;5054957;28;20041;-65
2023/03/21 03:41:45;;;;;;;3.30;2.08;;;;;;;17.21;42.39;100157.28;5055192;28;20375;-65
2023/03/21 03:44:34;;;;;;;4.00;2.25;;;;;;;17.21;42.31;100154.59;5055114;28;20502;-64
2023/03/21 03:47:06;;;;;;;4.20;2.30;;;;;;;17.20;42.27;100151.03;5054944;28;20049;-64
2023/03/21 03:49:39;;;;;;;3.60;2.50;;;;;;;17.20;42.24;100147.50;5055141;28;20384;-66
2023/03/21 03:52:10;;;;;;;;;;;;;;;17.20;42.45;100147.50;5055588;28;20047;-65
2023/03/21 03:54:42;;;;;;;4.38;2.42;;;;;;;17.19;42.31;100151.19;5054950;28;20370;-65
2023/03/21 03:57:13;;;;;;;4.05;2.30;;;;;;;17.16;42.39;100155.81;5055019;28;20049;-66
2023/03/21 03:59:43;;;;;;;4.20;2.05;;;;;;;17.17;42.27;100154.84;5054707;28;20123;-65
2023/03/21 04:02:11;;;;;;;4.03;2.28;;;;;;;17.15;42.33;100151.44;5054706;28;20675;-65
2023/03/21 04:04:41;;;;;;;4.82;2.47;;;;;;;17.14;42.25;100160.50;5054715;28;20077;-65
2023/03/21 04:07:09;;;;;;;3.78;2.38;;;;;;;17.14;42.05;100165.91;5054671;28;20421;-65
2023/03/21 04:09:37;;;;;;;4.25;2.33;;;;;;;17.14;42.32;100160.50;5054732;28;20501;-65
2023/03/21 04:12:13;;;;;;;3.85;2.03;;;;;;;17.14;42.41;100159.66;5054634;28;20121;-65
2023/03/21 04:14:41;;;;;;;3.75;2.33;;;;;;;17.11;42.30;100160.78;5061912;28;20042;-65
2023/03/21 04:17:14;;;;;;;3.72;2.28;;;;;;;17.12;42.35;100159.78;5054323;28;20052;-65
2023/03/21 04:19:44;;;;;;;4.00;2.13;;;;;;;17.12;42.40;100167.88;5054355;28;20049;-64
2023/03/21 04:22:12;;;;;;;4.97;2.20;;;;;;;17.11;42.36;100166.19;5054297;28;20049;-64
2023/03/21 04:24:41;;;;;;;3.17;2.08;;;;;;;17.12;42.42;100167.03;5053093;28;20041;-64
2023/03/21 04:27:09;;;;;;;3.70;2.40;;;;;;;17.10;42.28;100169.88;5054155;28;20041;-65
2023/03/21 04:29:39;;;;;;;4.45;2.40;;;;;;;17.09;42.44;100167.31;5054334;28;20044;-64
2023/03/21 04:32:15;;;;;;;4.47;2.67;;;;;;;17.09;42.32;100170.00;5054061;28;20040;-65
2023/03/21 04:34:48;;;;;;;4.28;2.50;;;;;;;17.06;42.46;100163.03;5054062;28;20041;-65
2023/03/21 04:37:17;;;;;;;3.83;2.25;;;;;;;17.07;42.51;100167.44;5053955;28;20045;-64
2023/03/21 04:39:46;;;;;;;5.03;2.55;;;;;;;17.07;42.37;100164.72;5053898;28;20081;-65
2023/03/21 04:42:17;;;;;;;4.38;2.67;;;;;;;17.05;42.46;100161.31;5054009;28;20049;-65
2023/03/21 04:44:48;;;;;;;4.70;2.58;;;;;;;17.05;42.64;100153.25;5054046;28;20052;-65
2023/03/21 04:47:19;;;;;;;3.42;2.25;;;;;;;17.06;42.61;100154.94;5053865;28;20505;-65
2023/03/21 04:49:47;;;;;;;4.72;2.58;;;;;;;17.03;42.49;100152.53;5053737;28;20052;-66
2023/03/21 04:52:16;;;;;;;3.88;2.40;;;;;;;17.03;42.66;100151.69;5053636;28;20048;-65
2023/03/21 04:54:44;;;;;;;4.50;2.40;;;;;;;17.03;42.49;100155.22;5053703;28;20447;-65
2023/03/21 04:57:13;;;;;;;4.07;2.40;;;;;;;17.02;42.57;100150.81;5053672;28;20053;-65
2023/03/21 04:59:41;;;;;;;3.33;2.20;;;;;;;17.02;42.46;100156.22;5053725;28;20045;-64
2023/03/21 05:02:11;;;;;;;3.65;2.20;;;;;;;17.02;42.59;100158.91;5052275;28;20490;-65
2023/03/21 05:04:40;;;;;;;3.60;2.30;;;;;;;17.02;42.57;100166.16;5053464;28;20060;-65
2023/03/21 05:07:08;;;;;;;5.22;2.60;;;;;;;16.99;42.75;100161.88;5053739;28;20139;-64
2023/03/21 05:09:37;;;;;;;3.55;2.00;;;;;;;16.98;42.53;100162.84;5053318;28;20124;-65
2023/03/21 05:12:05;;;;;;;3.78;2.10;;;;;;;16.99;42.60;100161.88;5053468;28;20041;-65
2023/03/21 05:14:33;;;;;;;4.15;2.17;;;;;;;16.98;42.61;100164.69;5053273;28;20119;-65
2023/03/21 05:17:04;;;;;;;3.78;2.33;;;;;;;16.98;42.68;100168.22;5053425;28;20052;-64
2023/03/21 05:19:39;;;;;;;4.10;2.40;;;;;;;16.98;42.65;100168.22;5053170;28;20055;-65
2023/03/21 05:22:10;;;;;;;3.75;2.17;;;;;;;16.98;42.53;100173.63;5053120;28;20052;-65
2023/03/21 05:24:40;;;;;;;3.67;2.28;;;;;;;16.97;42.73;100169.22;5053201;28;20092;-65
2023/03/21 05:27:09;;;;;;;3.78;2.25;;;;;;;16.97;42.73;100163.84;5053009;28;20044;-64
2023/03/21 05:29:37;;;;;;;4.03;2.42;;;;;;;16.97;42.76;100168.38;5052950;28;20118;-64
2023/03/21 05:32:06;;;;;;;3.53;2.10;;;;;;;16.95;42.81;100164.97;5069143;28;20044;-65
2023/03/21 05:34:35;;;;;;;4.30;2.35;;;;;;;16.93;42.78;100172.34;5070318;28;20056;-65
2023/03/21 05:37:03;;;;;;;4.15;2.58;;;;;;;16.95;42.77;100182.00;5052628;28;20056;-65
2023/03/21 05:39:31;;;;;;;3.55;2.10;;;;;;;16.95;42.64;100179.28;5052582;28;20079;-64
2023/03/21 05:41:59;;;;;;;6.75;2.45;;;;;;;16.93;42.84;100175.03;5052624;28;20099;-65
2023/03/21 05:44:27;;;;;;;4.75;2.13;;;;;;;16.94;42.90;100180.28;5052737;28;20037;-65
2023/03/21 05:46:56;;;;;;;3.50;2.00;;;;;;;16.94;42.90;100174.03;5052522;28;20037;-65
2023/03/21 05:49:24;;;;;;;3.30;2.00;;;;;;;16.93;42.83;100181.28;5052403;28;20053;-65
2023/03/21 05:51:53;;;;;;;3.70;2.20;;;;;;;16.93;42.88;100192.06;5052469;28;20146;-65
2023/03/21 05:54:21;;;;;;;3.92;2.38;;;;;;;16.93;42.80;100192.06;5052529;28;20079;-65
2023/03/21 05:56:49;;;;;;;3.08;2.13;;;;;;;16.92;42.73;100193.03;5052284;28;20083;-66
2023/03/21 05:59:18;;;;;;;4.22;2.40;;;;;;;16.94;42.83;100198.28;5052426;28;20503;-65
2023/03/21 06:01:46;;;;;;;4.00;2.30;;;;;;;16.90;42.79;100189.63;5051934;28;20506;-65
2023/03/21 06:04:14;;;;;;;3.55;2.25;;;;;;;16.92;42.93;100186.81;5052032;28;20048;-64
2023/03/21 06:06:42;;;;;;;3.25;2.15;;;;;;;16.92;42.91;100195.72;5052166;28;20143;-64
2023/03/21 06:09:12;;;;;;;3.60;2.20;;;;;;;16.93;42.80;100191.19;5052066;28;20545;-65
2023/03/21 06:11:46;;;;;;;3.38;1.92;;;;;;;16.90;42.85;100192.31;5052032;28;20041;-66
2023/03/21 06:14:14;;;;;;;3.47;2.03;;;;;;;16.92;42.84;100198.44;5051971;28;20049;-64
2023/03/21 06:16:43;;;;;;;4.18;2.22;;;;;;;16.89;42.77;100187.94;5053674;28;20163;-65
2023/03/21 06:19:12;;;;;;;4.47;2.25;;;;;;;16.90;42.88;100186.94;5071964;28;20123;-65
2023/03/21 06:21:40;;;;;;;3.53;2.10;;;;;;;16.92;42.99;100197.56;5071920;28;20040;-66
2023/03/21 06:24:09;;;;;;;3.97;2.33;;;;;;;16.92;42.88;100200.28;5071645;28;20136;-65
2023/03/21 06:26:38;;;;;;;3.50;2.10;;;;;;;16.89;42.99;100190.63;5071828;28;20119;-66
2023/03/21 06:29:06;;;;;;;3.65;2.20;;;;;;;16.91;42.92;100195.88;5070137;28;20048;-67
2023/03/21 06:31:39;;;;;;;3.72;2.05;;;;;;;16.92;42.90;100200.28;5051981;28;20106;-67
2023/03/21 06:34:09;;;;;;;4.70;2.22;;;;;;;16.91;42.95;100196.72;5051762;28;20127;-66
2023/03/21 06:36:37;;;;;;;4.35;2.30;;;;;;;16.92;42.88;100202.97;5051401;28;20053;-66
2023/03/21 06:39:07;;;;;;;4.30;2.25;;;;;;;16.92;42.92;100203.81;5050775;28;20049;-66
2023/03/21 06:41:36;;;;;;;3.47;2.10;;;;;;;16.92;43.05;100202.97;5051164;28;20045;-66
2023/03/21 06:44:05;;;;;;;3.67;2.10;;;;;;;16.91;42.79;100202.13;5050842;28;20102;-67
2023/03/21 06:46:33;;;;;;;3.83;2.10;;;;;;;16.92;43.07;100198.44;5051072;28;20049;-65
2023/03/21 06:49:01;;;;;;;3.85;2.10;;;;;;;16.92;43.06;100198.44;5052958;28;20490;-68
2023/03/21 06:51:30;;;;;;;4.70;1.95;;;;;;;16.91;42.96;100194.03;5054664;28;20082;-66
2023/03/21 06:54:45;;;;;;;4.45;2.03;;;;;;;16.92;43.10;100198.44;5066368;28;20052;-66
2023/03/21 06:57:26;;;;;;;3.05;1.90;;;;;;;16.92;43.13;100201.13;5042947;28;20059;-64
2023/03/21 07:00:27;;;;;;;4.32;2.40;;;;;;;16.91;42.87;100204.81;5072255;28;20059;-66
2023/03/21 07:03:09;;;;;;;;;;;;;;;16.93;43.05;100205.53;5072655;28;20443;-62
2023/03/21 07:05:38;;;;;;;3.83;2.10;;;;;;;16.94;43.04;100201.84;5066583;28;19920;-66
2023/03/21 07:08:09;;;;;;;3.28;1.80;;;;;;;16.94;43.01;100206.38;5067146;28;20079;-64
2023/03/21 07:10:39;;;;;;;4.22;1.80;;;;;;;16.92;43.07;100198.44;5056999;28;20048;-65
2023/03/21 07:13:07;;;;;;;3.78;2.20;;;;;;;16.94;43.05;100207.22;5070984;28;20524;-66
2023/03/21 07:15:37;;;;;;;3.63;2.10;;;;;;;16.93;43.07;100210.06;5071476;28;20489;-65
2023/03/21 07:18:08;;;;;;;3.63;2.03;;;;;;;16.96;43.14;100204.38;5071322;28;20048;-66
2023/03/21 07:20:37;;;;;;;3.53;2.10;;;;;;;16.91;42.96;100202.13;5071449;28;20110;-63
2023/03/21 07:23:06;;;;;;;3.90;2.17;;;;;;;16.94;43.00;100201.84;5071247;28;20040;-65
2023/03/21 07:25:34;;;;;;;2.95;1.90;;;;;;;16.95;43.04;100206.22;5071135;28;20044;-69
2023/03/21 07:28:07;;;;;;;3.50;2.15;;;;;;;16.96;43.00;100210.63;5071331;28;20045;-64
2023/03/21 07:30:37;;;;;;;4.32;2.30;;;;;;;16.96;43.08;100204.38;5071225;28;20098;-65
2023/03/21 07:33:05;;;;;;;4.78;2.50;;;;;;;16.95;43.14;100202.69;5071149;28;20044;-64
2023/03/21 07:35:36;;;;;;;3.92;2.10;;;;;;;16.96;43.20;100205.25;5071212;28;20055;-69
2023/03/21 07:38:05;;;;;;;3.90;2.13;;;;;;;16.96;43.06;100207.94;5071043;28;20522;-65
2023/03/21 07:40:36;;;;;;;3.88;2.03;;;;;;;16.98;43.18;100207.78;5070531;28;20052;-69
2023/03/21 07:43:04;;;;;;;3.20;2.08;;;;;;;16.98;43.17;100207.78;5070784;28;20032;-68
2023/03/21 07:45:33;;;;;;;3.38;2.10;;;;;;;16.98;43.20;100203.25;5070969;28;20052;-65
2023/03/21 07:48:02;;;;;;;3.35;2.10;;;;;;;16.98;43.11;100208.66;5071114;28;20048;-68
2023/03/21 07:50:30;;;;;;;3.15;1.90;;;;;;;17.00;43.17;100206.69;5070940;28;20463;-67
2023/03/21 07:52:59;;;;;;;3.67;2.17;;;;;;;16.99;43.31;100209.53;5071265;28;20048;-68
2023/03/21 07:55:28;;;;;;;4.82;2.10;;;;;;;16.99;43.17;100205.00;5071055;28;20076;-68
2023/03/21 07:57:57;;;;;;;2.97;1.90;;;;;;;16.99;43.14;100205.00;5071537;28;20067;-68
2023/03/21 08:00:25;;;;;;;3.47;1.98;;;;;;;17.02;43.12;100209.25;5074521;28;20435;-65
2023/03/21 08:02:56;;;;;;;3.47;2.10;;;;;;;17.01;43.18;100203.00;5074576;28;20075;-70
2023/03/21 08:05:30;;;;;;;3.40;2.10;;;;;;;17.00;43.27;100201.31;5073866;28;20075;-68
2023/03/21 08:07:58;;;;;;;3.65;2.05;;;;;;;17.02;43.23;100201.16;5074166;28;20048;-68
2023/03/21 08:10:26;;;;;;;5.00;2.28;;;;;;;17.02;43.30;100199.34;5074251;28;20516;-69
2023/03/21 08:12:54;;;;;;;4.28;2.00;;;;;;;17.02;43.23;100202.03;5074227;28;20055;-68
2023/03/21 08:15:23;;;;;;;3.00;1.90;;;;;;;17.04;43.28;100207.28;5074113;28;20054;-69
2023/03/21 08:17:52;;;;;;;3.30;2.08;;;;;;;17.05;43.35;100198.19;5105567;28;20080;-68
2023/03/21 08:20:22;;;;;;;3.88;1.95;;;;;;;17.02;43.16;100204.72;5074213;28;20076;-68
2023/03/21 08:22:51;;;;;;;4.07;1.83;;;;;;;17.02;43.33;100207.41;5074321;28;20044;-69
2023/03/21 08:25:21;;;;;;;3.03;1.83;;;;;;;17.01;43.41;100197.63;5074426;28;20078;-68
2023/03/21 08:27:51;;;;;;;3.45;1.80;;;;;;;17.06;43.42;100205.28;5074127;28;20204;-68
2023/03/21 08:30:21;;;;;;;3.00;1.77;;;;;;;17.07;43.40;100199.75;5073990;28;20060;-68
2023/03/21 08:32:49;;;;;;;3.80;1.90;;;;;;;17.09;43.21;100205.03;5073939;28;20044;-68
2023/03/21 08:35:19;;;;;;;3.78;2.33;;;;;;;17.09;43.25;100199.66;5073932;28;20106;-69
2023/03/21 08:37:47;;;;;;;3.60;2.20;;;;;;;17.09;43.42;100200.50;5073786;28;20048;-69
2023/03/21 08:40:19;;;;;;;3.15;1.95;;;;;;;17.10;43.47;100210.28;5073573;28;20044;-67
2023/03/21 08:42:47;;;;;;;3.45;1.95;;;;;;;17.09;43.36;100203.19;5073749;28;20048;-68
2023/03/21 08:45:17;;;;;;;4.65;2.20;;;;;;;17.11;43.62;100203.91;5073773;28;20405;-68
2023/03/21 08:47:45;;;;;;;3.40;1.98;;;;;;;17.08;43.43;100197.91;5106023;28;20405;-68
2023/03/21 08:50:17;;;;;;;3.17;1.92;;;;;;;17.13;43.39;100201.06;5073724;28;20106;-68
2023/03/21 08:52:45;;;;;;;3.05;1.90;;;;;;;17.13;43.63;100207.31;5073544;28;20454;-69
2023/03/21 08:55:15;;;;;;;3.17;1.90;;;;;;;17.13;43.57;100195.69;5073754;28;20044;-68
2023/03/21 08:57:45;;;;;;;3.30;2.00;;;;;;;17.14;43.54;100206.31;5073417;28;20086;-69
2023/03/21 09:00:16;;;;;;;3.28;1.90;;;;;;;17.13;43.66;100191.16;5073665;28;20044;-69
2023/03/21 09:02:47;;;;;;;3.67;2.03;;;;;;;17.13;43.47;100191.16;5073475;28;20060;-68
2023/03/21 09:05:15;;;;;;;3.22;1.98;;;;;;;17.13;43.67;100191.16;5073581;28;20052;-68
2023/03/21 09:07:44;;;;;;;3.25;1.80;;;;;;;17.16;43.53;100185.47;5073433;28;20157;-69
2023/03/21 09:10:15;;;;;;;3.03;1.90;;;;;;;17.19;43.63;100194.31;5072672;28;20123;-68
2023/03/21 09:12:52;;;;;;;3.47;1.92;;;;;;;17.21;43.59;100186.94;5073657;28;20041;-69
2023/03/21 09:15:23;;;;;;;3.55;1.70;;;;;;;17.23;43.70;100187.63;5074382;28;20113;-68
2023/03/21 09:17:53;;;;;;;3.58;1.90;;;;;;;17.23;43.59;100184.94;5073021;28;20048;-68
2023/03/21 09:20:29;;;;;;;3.85;1.95;;;;;;;17.25;43.45;100194.59;5073239;28;20041;-68
2023/03/21 09:22:59;;;;;;;4.63;2.13;;;;;;;17.28;43.54;100190.78;5071323;28;20079;-68
2023/03/21 09:25:29;;;;;;;3.60;1.88;;;;;;;17.27;43.48;100187.22;5073266;28;20067;-68
2023/03/21 09:28:01;;;;;;;2.85;1.70;;;;;;;17.30;43.58;100191.50;5073199;28;20051;-68
2023/03/21 09:30:30;;;;;;;3.28;1.75;;;;;;;17.31;43.56;100188.66;5073030;28;20065;-68
2023/03/21 09:32:59;;;;;;;3.45;1.80;;;;;;;17.34;43.62;100187.53;5072591;28;20078;-69
2023/03/21 09:35:28;;;;;;;3.65;1.98;;;;;;;17.33;43.66;100188.53;5072810;28;20054;-69
2023/03/21 09:37:56;;;;;;;3.13;1.75;;;;;;;17.38;43.75;100184.44;5072641;28;20497;-69
2023/03/21 09:40:40;;;;;;;2.55;1.70;;;;;;;17.38;43.95;100189.84;5072605;28;20095;-69
2023/03/21 09:43:23;;;;;;;3.03;1.75;;;;;;;17.40;43.91;100189.69;5072635;28;20045;-69
2023/03/21 09:45:54;;;;;;;;;;;;;;;17.46;43.78;100194.50;5073191;28;20127;-69
2023/03/21 09:48:35;;;;;;;3.42;1.73;;;;;;;17.49;43.78;100201.50;5072510;28;19935;-69
2023/03/21 09:51:14;;;;;;;3.20;1.90;;;;;;;17.50;43.81;100187.88;5072490;28;20119;-68
2023/03/21 09:53:46;;;;;;;2.85;1.63;;;;;;;17.53;43.87;100190.28;5072503;28;20049;-68
2023/03/21 09:56:16;;;;;;;4.15;1.73;;;;;;;17.55;43.68;100188.28;5072488;28;20573;-69
2023/03/21 09:58:53;;;;;;;3.45;1.70;;;;;;;17.57;43.86;100186.34;5072376;28;20492;-69
2023/03/21 10:01:27;;;;;;;3.00;1.80;;;;;;;17.60;43.68;100177.97;5072343;28;20052;-68
2023/03/21 10:03:57;;;;;;;4.07;1.80;;;;;;;17.61;43.85;100182.34;5072589;28;20072;-68
2023/03/21 10:06:29;;;;;;;2.53;1.50;;;;;;;17.63;43.90;100188.44;5071939;28;20044;-68
2023/03/21 10:09:06;;;;;;;3.30;1.90;;;;;;;17.68;43.94;100179.97;5072042;28;20369;-69
2023/03/21 10:11:42;;;;;;;2.67;1.50;;;;;;;17.71;43.94;100185.94;5072240;28;20119;-70
2023/03/21 10:14:18;;;;;;;3.33;1.67;;;;;;;17.76;43.94;100187.38;5072242;28;20131;-68
2023/03/21 10:16:49;;;;;;;2.80;1.77;;;;;;;17.77;44.04;100183.72;5071690;28;20044;-68
2023/03/21 10:19:19;;;;;;;2.90;1.75;;;;;;;17.81;44.13;100179.72;5071939;28;20097;-69
2023/03/21 10:21:49;;;;;;;2.83;1.65;;;;;;;17.84;43.96;100182.97;5070939;28;20052;-68
2023/03/21 10:24:34;;;;;;;3.20;1.70;;;;;;;17.90;43.93;100186.97;5072531;28;20065;-68
2023/03/21 10:27:04;;;;;;;3.47;1.73;;;;;;;17.95;44.08;100182.00;5073206;28;20465;-69
2023/03/21 10:29:42;;;;;;;3.15;1.98;;;;;;;17.97;44.05;100177.31;5071782;28;20056;-68
2023/03/21 10:32:13;;;;;;;3.05;1.48;;;;;;;18.02;44.05;100177.75;5071657;28;20123;-69
2023/03/21 10:34:44;;;;;;;2.45;1.55;;;;;;;18.04;44.06;100175.75;5071849;28;20114;-69
2023/03/21 10:37:13;;;;;;;3.25;1.80;;;;;;;18.08;44.14;100173.63;5071706;28;20068;-69
2023/03/21 10:39:45;;;;;;;2.38;1.45;;;;;;;18.15;43.91;100170.22;5071574;28;20139;-69
2023/03/21 10:42:20;;;;;;;2.72;1.73;;;;;;;18.18;44.05;100171.78;5071786;28;20351;-69
2023/03/21 10:44:52;;;;;;;2.58;1.52;;;;;;;18.25;44.01;100165.69;5071807;28;20099;-69
2023/03/21 10:47:21;;;;;;;2.33;1.50;;;;;;;18.29;43.62;100167.06;5071621;28;20106;-69
2023/03/21 10:49:52;;;;;;;2.60;1.38;;;;;;;18.35;44.05;100164.81;5071989;28;20055;-69
2023/03/21 10:52:44;;;;;;;2.15;1.40;;;;;;;18.36;43.94;100147.63;5071463;28;20044;-69
2023/03/21 10:55:21;;;;;;;2.50;1.55;;;;;;;18.44;43.83;100162.09;5071831;28;20044;-69
2023/03/21 10:57:56;;;;;;;2.35;1.45;;;;;;;18.50;44.00;100163.34;5071451;28;20515;-68
2023/03/21 11:00:30;;;;;;;2.03;1.40;;;;;;;18.54;43.76;100157.53;5071548;28;20048;-69
2023/03/21 11:02:58;;;;;;;2.20;1.48;;;;;;;18.61;43.87;100149.66;5071317;28;20443;-68
2023/03/21 11:05:34;;;;;;;2.10;1.50;;;;;;;18.66;43.96;100154.69;5071495;28;20049;-68
2023/03/21 11:08:06;;;;;;;2.63;1.52;;;;;;;18.69;43.80;100136.31;5071020;28;20127;-69
2023/03/21 11:10:36;;;;;;;2.38;1.50;;;;;;;18.75;43.65;100141.16;5071154;28;20048;-69
2023/03/21 11:13:08;;;;;;;2.35;1.33;;;;;;;18.82;43.72;100139.56;5071263;28;20511;-69
2023/03/21 11:15:53;;;;;;;2.50;1.35;;;;;;;18.87;43.88;100134.56;5071239;28;20113;-69
2023/03/21 11:18:24;;;;;;;1.98;1.40;;;;;;;18.94;43.72;100137.53;5071279;28;20056;-68
2023/03/21 11:20:54;;;;;;;1.95;1.27;;;;;;;18.99;43.49;100124.41;5071311;28;20333;-69
2023/03/21 11:23:28;;;;;;;2.25;1.42;;;;;;;19.04;43.59;100123.97;5071118;28;20067;-69
2023/03/21 11:25:57;;;;;;;;;;;;;;;19.09;43.66;100125.19;5071647;28;20037;-69
2023/03/21 11:28:33;;;;;;;2.45;1.58;;;;;;;19.13;43.57;100115.81;5071138;28;19927;-69
2023/03/21 11:31:04;;;;;;;2.50;1.40;;;;;;;19.21;43.38;100117.75;5071169;28;20565;-68
2023/03/21 11:33:35;;;;;;;1.90;1.40;;;;;;;19.24;43.35;100117.44;5072923;28;20045;-69
2023/03/21 11:36:06;;;;;;;2.42;1.52;;;;;;;19.28;43.44;100102.63;5075051;28;20436;-69
2023/03/21 11:38:38;;;;;;;2.22;1.30;;;;;;;19.37;43.26;100106.25;5074736;28;20052;-69
2023/03/21 11:41:07;;;;;;;2.08;1.17;;;;;;;19.40;43.28;100106.84;5074720;28;20515;-70
2023/03/21 11:43:38;;;;;;;1.95;1.40;;;;;;;19.48;43.14;100102.47;5074847;28;20056;-69
2023/03/21 11:46:10;;;;;;;2.30;1.48;;;;;;;19.53;42.99;100111.00;5075105;28;20068;-70
2023/03/21 11:48:41;;;;;;;3.08;1.60;;;;;;;19.59;43.26;100105.00;5074829;28;20083;-70
2023/03/21 11:51:22;;;;;;;2.63;1.67;;;;;;;19.65;42.89;100098.97;5074561;28;20052;-70